createdAt,value
2018-12-14T00:02:18.799Z,19.60
2018-12-14T00:04:52.705Z,19.63
2018-12-14T00:07:26.727Z,19.87
2018-12-14T00:10:00.724Z,19.20
2018-12-14T00:12:34.733Z,19.53
2018-12-14T00:15:08.545Z,19.53
2018-12-14T00:17:42.424Z,20.13
2018-12-14T00:20:16.132Z,19.60
2018-12-14T00:22:50.040Z,19.60
2018-12-14T00:25:23.860Z,20.30
2018-12-14T00:27:57.768Z,19.60
2018-12-14T00:30:31.573Z,20.80
2018-12-14T00:33:05.890Z,21.17
2018-12-14T00:35:41.130Z,20.27
2018-12-14T00:38:15.060Z,19.03
2018-12-14T00:40:48.950Z,18.93
2018-12-14T00:43:23.056Z,18.97
2018-12-14T00:45:56.938Z,18.87
2018-12-14T00:48:31.279Z,18.70
2018-12-14T00:51:05.125Z,18.43
2018-12-14T00:53:39.194Z,18.27
2018-12-14T00:56:13.203Z,18.23
2018-12-14T00:58:47.177Z,18.37
2018-12-14T01:01:21.194Z,19.27
2018-12-14T01:03:55.568Z,18.80
2018-12-14T01:06:29.652Z,18.13
2018-12-14T01:09:05.504Z,19.30
2018-12-14T01:11:39.391Z,19.07
2018-12-14T01:14:14.138Z,19.93
2018-12-14T01:16:49.446Z,19.50
2018-12-14T01:19:24.513Z,19.10
2018-12-14T01:21:58.419Z,19.43
2018-12-14T01:24:32.327Z,18.87
2018-12-14T01:27:06.389Z,19.50
2018-12-14T01:29:40.372Z,18.53
2018-12-14T01:32:15.481Z,18.77
2018-12-14T01:34:49.403Z,19.07
2018-12-14T01:37:23.500Z,19.60
2018-12-14T01:39:57.510Z,18.90
2018-12-14T01:42:31.826Z,18.50
2018-12-14T01:45:06.566Z,19.17
2018-12-14T01:47:41.095Z,18.30
2018-12-14T01:50:14.981Z,19.97
2018-12-14T01:52:48.888Z,19.27
2018-12-14T01:55:22.796Z,19.67
2018-12-14T01:57:56.649Z,19.43
2018-12-14T02:00:30.565Z,19.53
2018-12-14T02:03:04.723Z,19.33
2018-12-14T02:05:38.529Z,19.30
2018-12-14T02:08:12.235Z,20.00
2018-12-14T02:10:46.239Z,19.67
2018-12-14T02:13:20.249Z,19.80
2018-12-14T02:15:54.874Z,19.70
2018-12-14T02:18:28.900Z,19.50
2018-12-14T02:21:02.730Z,19.77
2018-12-14T02:23:36.798Z,19.80
2018-12-14T02:26:10.762Z,20.40
2018-12-14T02:28:44.921Z,18.87
2018-12-14T02:31:18.733Z,19.90
2018-12-14T02:33:52.837Z,19.80
2018-12-14T02:36:26.744Z,18.80
2018-12-14T02:39:00.653Z,20.43
2018-12-14T02:41:34.558Z,19.90
2018-12-14T02:44:08.468Z,20.90
2018-12-14T02:46:42.372Z,19.80
2018-12-14T02:49:16.214Z,18.80
2018-12-14T02:51:50.376Z,16.37
2018-12-14T02:54:24.281Z,15.70
2018-12-14T02:56:58.513Z,15.60
2018-12-14T02:59:32.524Z,15.33
2018-12-14T03:02:06.533Z,15.57
2018-12-14T03:04:40.542Z,14.20
2018-12-14T03:07:14.553Z,14.67
2018-12-14T03:09:48.327Z,13.73
2018-12-14T03:12:26.636Z,13.40
2018-12-14T03:14:58.424Z,12.90
2018-12-14T03:17:32.435Z,11.77
2018-12-14T03:20:07.788Z,12.07
2018-12-14T03:22:41.784Z,11.73
2018-12-14T03:25:15.897Z,11.43
2018-12-14T03:27:49.873Z,12.37
2018-12-14T03:30:23.919Z,11.47
2018-12-14T03:32:58.032Z,11.63
2018-12-14T03:35:31.865Z,12.40
2018-12-14T03:38:05.849Z,11.17
2018-12-14T03:40:39.853Z,13.63
2018-12-14T03:43:13.964Z,12.87
2018-12-14T03:45:47.875Z,13.80
2018-12-14T03:48:21.735Z,12.73
2018-12-14T03:50:55.890Z,14.20
2018-12-14T03:53:29.697Z,15.07
2018-12-14T03:56:03.603Z,15.17
2018-12-14T03:58:37.304Z,16.80
2018-12-14T04:01:11.417Z,15.57
2018-12-14T04:03:45.324Z,16.90
2018-12-14T04:06:19.335Z,17.10
2018-12-14T04:08:53.145Z,16.40
2018-12-14T04:11:27.149Z,16.50
2018-12-14T04:14:00.796Z,16.80
2018-12-14T04:16:34.724Z,16.67
2018-12-14T04:19:08.720Z,14.87
2018-12-14T04:21:42.776Z,14.77
2018-12-14T04:24:16.388Z,14.10
2018-12-14T04:26:50.285Z,12.20
2018-12-14T04:29:24.384Z,12.60
2018-12-14T04:31:58.303Z,13.53
2018-12-14T04:34:32.198Z,12.27
2018-12-14T04:37:06.222Z,12.50
2018-12-14T04:39:40.232Z,12.63
2018-12-14T04:42:14.137Z,12.63
2018-12-14T04:44:48.053Z,13.13
2018-12-14T04:47:22.160Z,13.40
2018-12-14T04:49:56.086Z,13.80
2018-12-14T04:52:29.964Z,15.07
2018-12-14T04:55:05.721Z,14.57
2018-12-14T04:57:39.596Z,14.43
2018-12-14T05:00:13.405Z,14.90
2018-12-14T05:02:47.104Z,14.43
2018-12-14T05:05:21.102Z,13.73
2018-12-14T05:07:55.154Z,12.90
2018-12-14T05:10:28.960Z,14.37
2018-12-14T05:13:02.633Z,12.57
2018-12-14T05:15:36.486Z,12.97
2018-12-14T05:18:10.477Z,12.43
2018-12-14T05:20:44.280Z,13.37
2018-12-14T05:23:18.289Z,13.67
2018-12-14T05:25:53.732Z,12.50
2018-12-14T05:28:27.509Z,13.50
2018-12-14T05:31:01.596Z,13.33
2018-12-14T05:33:35.659Z,12.87
2018-12-14T05:36:09.672Z,13.93
2018-12-14T05:38:43.473Z,12.90
2018-12-14T05:41:17.380Z,13.23
2018-12-14T05:43:51.290Z,13.80
2018-12-14T05:46:25.194Z,13.70
2018-12-14T05:48:58.873Z,13.80
2018-12-14T05:51:32.907Z,13.83
2018-12-14T05:54:06.549Z,15.13
2018-12-14T05:56:40.368Z,14.20
2018-12-14T05:59:14.386Z,14.40
2018-12-14T06:01:48.637Z,14.47
2018-12-14T06:04:22.545Z,13.63
2018-12-14T06:06:56.352Z,14.57
2018-12-14T06:09:30.363Z,15.17
2018-12-14T06:12:04.689Z,14.53
2018-12-14T06:14:38.584Z,13.27
2018-12-14T06:17:12.456Z,12.30
2018-12-14T06:19:46.604Z,13.07
2018-12-14T06:22:21.636Z,14.07
2018-12-14T06:24:55.873Z,13.83
2018-12-14T06:27:29.864Z,15.90
2018-12-14T06:30:06.233Z,15.10
2018-12-14T06:32:40.147Z,14.30
2018-12-14T06:35:14.140Z,15.33
2018-12-14T06:37:48.058Z,15.87
2018-12-14T06:40:22.071Z,15.87
2018-12-14T06:42:56.071Z,19.15
2018-12-14T06:45:30.042Z,16.13
2018-12-14T06:48:03.987Z,14.30
2018-12-14T06:50:37.993Z,15.37
2018-12-14T06:53:12.145Z,15.27
2018-12-14T06:55:45.964Z,15.13
2018-12-14T06:58:19.817Z,14.57
2018-12-14T07:00:53.801Z,15.33
2018-12-14T07:03:27.734Z,15.43
2018-12-14T07:06:01.744Z,16.33
2018-12-14T07:08:35.856Z,15.37
2018-12-14T07:11:09.816Z,16.53
2018-12-14T07:13:43.733Z,15.73
2018-12-14T07:16:19.628Z,15.37
2018-12-14T07:18:53.642Z,16.63
2018-12-14T07:21:27.541Z,15.60
2018-12-14T07:24:01.801Z,15.33
2018-12-14T07:26:36.284Z,15.10
2018-12-14T07:29:10.165Z,14.53
2018-12-14T07:31:44.193Z,15.07
2018-12-14T07:34:18.046Z,15.03
2018-12-14T07:36:52.111Z,14.20
2018-12-14T07:39:25.979Z,14.80
2018-12-14T07:42:00.097Z,14.73
2018-12-14T07:44:34.169Z,13.47
2018-12-14T07:47:11.696Z,12.60
2018-12-14T07:49:44.309Z,13.67
2018-12-14T07:52:18.217Z,12.40
2018-12-14T07:54:52.126Z,13.47
2018-12-14T07:57:26.031Z,12.37
2018-12-14T07:59:59.733Z,12.07
2018-12-14T08:02:33.641Z,12.17
2018-12-14T08:05:07.459Z,11.53
2018-12-14T08:07:41.243Z,12.00
2018-12-14T08:10:15.260Z,12.13
2018-12-14T08:12:49.475Z,14.17
2018-12-14T08:15:23.426Z,11.73
2018-12-14T08:17:57.494Z,12.20
2018-12-14T08:20:31.606Z,13.50
2018-12-14T08:23:05.614Z,12.70
2018-12-14T08:25:39.363Z,12.90
2018-12-14T08:28:13.406Z,12.93
2018-12-14T08:30:47.697Z,13.10
2018-12-14T08:33:21.755Z,12.70
2018-12-14T08:35:55.560Z,13.57
2018-12-14T08:38:29.367Z,13.30
2018-12-14T08:41:03.076Z,12.27
2018-12-14T08:43:41.434Z,12.43
2018-12-14T08:46:12.827Z,12.10
2018-12-14T08:48:46.734Z,11.87
2018-12-14T08:51:20.539Z,11.57
2018-12-14T08:53:54.217Z,11.53
2018-12-14T08:56:28.046Z,12.13
2018-12-14T08:59:01.754Z,11.57
2018-12-14T09:01:35.554Z,11.47
2018-12-14T09:04:09.213Z,11.10
2018-12-14T09:06:43.041Z,10.47
2018-12-14T09:09:16.866Z,11.17
2018-12-14T09:11:50.875Z,10.77
2018-12-14T09:14:24.784Z,10.40
2018-12-14T09:16:58.796Z,10.87
2018-12-14T09:19:32.699Z,11.30
2018-12-14T09:22:06.506Z,10.93
2018-12-14T09:24:40.157Z,10.80
2018-12-14T09:27:14.115Z,11.67
2018-12-14T09:29:47.918Z,10.43
2018-12-14T09:32:21.872Z,11.83
2018-12-14T09:34:56.040Z,11.80
2018-12-14T09:37:29.865Z,12.37
2018-12-14T09:40:04.687Z,12.23
2018-12-14T09:42:38.579Z,12.13
2018-12-14T09:45:12.691Z,11.00
2018-12-14T09:47:46.602Z,11.03
2018-12-14T09:50:20.916Z,10.80
2018-12-14T09:52:55.132Z,11.20
2018-12-14T09:55:29.038Z,10.13
2018-12-14T09:58:03.047Z,9.60
2018-12-14T10:00:36.852Z,10.37
2018-12-14T10:03:10.759Z,9.17
2018-12-14T10:05:44.732Z,9.73
2018-12-14T10:08:18.680Z,9.00
2018-12-14T10:10:52.643Z,9.03
2018-12-14T10:13:26.877Z,9.27
2018-12-14T10:16:01.113Z,9.40
2018-12-14T10:18:34.968Z,9.33
2018-12-14T10:21:09.134Z,9.83
2018-12-14T10:23:43.040Z,9.20
2018-12-14T10:26:17.052Z,9.20
2018-12-14T10:28:51.059Z,9.53
2018-12-14T10:31:25.070Z,9.33
2018-12-14T10:33:58.874Z,9.10
2018-12-14T10:36:32.894Z,9.70
2018-12-14T10:39:07.101Z,8.73
2018-12-14T10:41:41.209Z,8.77
2018-12-14T10:44:15.116Z,8.30
2018-12-14T10:46:49.228Z,8.53
2018-12-14T10:49:22.975Z,8.73
2018-12-14T10:51:57.043Z,8.20
2018-12-14T10:54:30.903Z,8.50
2018-12-14T10:57:04.653Z,9.40
2018-12-14T10:59:38.665Z,8.87
2018-12-14T11:02:12.634Z,9.30
2018-12-14T11:04:46.580Z,9.40
2018-12-14T11:07:20.485Z,9.40
2018-12-14T11:09:54.292Z,9.60
2018-12-14T11:12:28.402Z,9.40
2018-12-14T11:15:02.206Z,8.20
2018-12-14T11:17:36.117Z,8.13
2018-12-14T11:20:10.333Z,7.77
2018-12-14T11:22:44.338Z,7.50
2018-12-14T11:25:18.449Z,7.80
2018-12-14T11:27:52.364Z,8.20
2018-12-14T11:30:26.367Z,7.03
2018-12-14T11:33:01.092Z,7.60
2018-12-14T11:35:35.102Z,8.03
2018-12-14T11:38:08.909Z,8.00
2018-12-14T11:40:42.921Z,8.20
2018-12-14T11:43:16.725Z,8.27
2018-12-14T11:45:50.615Z,7.80
2018-12-14T11:48:24.337Z,7.30
2018-12-14T11:50:58.143Z,7.93
2018-12-14T11:53:32.146Z,8.50
2018-12-14T11:56:06.053Z,7.80
2018-12-14T11:58:40.164Z,8.50
2018-12-14T12:01:14.071Z,9.70
2018-12-14T12:03:47.739Z,8.93
2018-12-14T12:06:21.681Z,8.87
2018-12-14T12:08:55.587Z,9.00
2018-12-14T12:11:29.294Z,8.27
2018-12-14T12:14:03.097Z,8.50
2018-12-14T12:16:37.207Z,9.43
2018-12-14T12:19:11.326Z,9.27
2018-12-14T12:21:45.534Z,8.43
2018-12-14T12:24:19.440Z,9.00
2018-12-14T12:26:53.552Z,8.97
2018-12-14T12:29:27.563Z,9.07
2018-12-14T12:32:01.674Z,9.03
2018-12-14T12:34:35.683Z,8.37
2018-12-14T12:37:09.457Z,8.77
2018-12-14T12:39:43.485Z,8.30
2018-12-14T12:42:17.507Z,8.50
2018-12-14T12:44:51.416Z,8.00
2018-12-14T12:47:25.321Z,8.00
2018-12-14T12:49:59.438Z,6.83
2018-12-14T12:52:33.380Z,7.07
2018-12-14T12:55:07.192Z,7.20
2018-12-14T12:57:41.295Z,6.80
2018-12-14T13:00:15.322Z,7.00
2018-12-14T13:02:49.380Z,6.93
2018-12-14T13:05:23.388Z,6.67
2018-12-14T13:07:57.298Z,6.50
2018-12-14T13:10:31.305Z,6.50
2018-12-14T13:13:05.212Z,7.10
2018-12-14T13:15:39.222Z,6.63
2018-12-14T13:18:12.923Z,6.37
2018-12-14T13:20:46.899Z,6.33
2018-12-14T13:23:21.057Z,6.50
2018-12-14T13:25:55.044Z,6.60
2018-12-14T13:28:29.375Z,6.70
2018-12-14T13:31:03.181Z,6.47
2018-12-14T13:33:37.186Z,6.60
2018-12-14T13:36:11.298Z,6.27
2018-12-14T13:38:45.207Z,7.07
2018-12-14T13:41:19.234Z,7.17
2018-12-14T13:43:53.244Z,7.00
2018-12-14T13:46:27.233Z,6.93
2018-12-14T13:49:02.882Z,7.43
2018-12-14T13:51:37.163Z,7.33
2018-12-14T13:54:11.112Z,7.10
2018-12-14T13:56:45.217Z,7.50
2018-12-14T13:59:18.929Z,7.43
2018-12-14T14:01:52.929Z,7.53
2018-12-14T14:04:26.899Z,7.37
2018-12-14T14:07:00.951Z,7.53
2018-12-14T14:09:34.957Z,7.13
2018-12-14T14:12:08.763Z,8.00
2018-12-14T14:14:42.772Z,7.70
2018-12-14T14:17:16.680Z,7.30
2018-12-14T14:19:50.658Z,6.73
2018-12-14T14:22:25.007Z,7.67
2018-12-14T14:24:58.815Z,8.43
2018-12-14T14:27:32.718Z,7.37
2018-12-14T14:30:08.047Z,7.67
2018-12-14T14:32:41.976Z,8.37
2018-12-14T14:35:15.931Z,7.97
2018-12-14T14:37:49.985Z,8.47
2018-12-14T14:40:23.790Z,8.90
2018-12-14T14:42:57.604Z,8.70
2018-12-14T14:45:31.402Z,9.23
2018-12-14T14:48:05.512Z,9.50
2018-12-14T14:50:40.237Z,9.03
2018-12-14T14:53:14.249Z,9.17
2018-12-14T14:55:48.256Z,9.20
2018-12-14T14:58:22.179Z,8.50
2018-12-14T15:00:56.053Z,9.60
2018-12-14T15:03:30.188Z,9.00
2018-12-14T15:06:04.037Z,9.03
2018-12-14T15:08:38.100Z,9.63
2018-12-14T15:11:11.871Z,9.47
2018-12-14T15:13:45.915Z,9.17
2018-12-14T15:16:19.927Z,9.13
2018-12-14T15:18:53.831Z,9.47
2018-12-14T15:21:27.515Z,9.67
2018-12-14T15:24:01.647Z,9.30
2018-12-14T15:26:35.452Z,9.77
2018-12-14T15:29:09.363Z,10.03
2018-12-14T15:31:44.188Z,9.77
2018-12-14T15:34:18.102Z,9.53
2018-12-14T15:36:52.069Z,9.07
2018-12-14T15:39:26.117Z,8.07
2018-12-14T15:42:00.202Z,8.47
2018-12-14T15:44:35.259Z,8.57
2018-12-14T15:47:09.167Z,8.87
2018-12-14T15:49:42.907Z,8.73
2018-12-14T15:52:16.979Z,8.23
2018-12-14T15:54:50.889Z,8.30
2018-12-14T15:57:25.108Z,7.77
2018-12-14T15:59:59.931Z,9.30
2018-12-14T16:02:34.143Z,8.23
2018-12-14T16:05:08.358Z,8.17
2018-12-14T16:07:42.299Z,7.90
2018-12-14T16:10:16.278Z,7.87
2018-12-14T16:12:50.182Z,8.50
2018-12-14T16:15:23.988Z,8.33
2018-12-14T16:17:58.025Z,8.93
2018-12-14T16:20:31.802Z,9.10
2018-12-14T16:23:06.904Z,9.07
2018-12-14T16:25:40.820Z,8.53
2018-12-14T16:28:14.726Z,9.10
2018-12-14T16:30:48.532Z,9.10
2018-12-14T16:33:22.333Z,9.03
2018-12-14T16:35:56.196Z,10.13
2018-12-14T16:38:30.074Z,9.63
2018-12-14T16:41:03.834Z,10.27
2018-12-14T16:43:37.864Z,9.43
2018-12-14T16:46:11.797Z,10.03
2018-12-14T16:48:45.750Z,9.97
2018-12-14T16:51:19.814Z,10.17
2018-12-14T16:54:05.149Z,10.40
2018-12-14T16:56:38.951Z,10.03
2018-12-14T16:59:13.004Z,9.27
2018-12-14T17:01:46.911Z,9.30
2018-12-14T17:04:20.833Z,9.87
2018-12-14T17:06:54.930Z,9.80
2018-12-14T17:09:28.837Z,9.60
2018-12-14T17:12:02.848Z,9.87
2018-12-14T17:14:36.857Z,10.17
2018-12-14T17:17:10.765Z,9.80
2018-12-14T17:19:44.476Z,9.87
2018-12-14T17:22:18.170Z,9.90
2018-12-14T17:24:51.988Z,11.03
2018-12-14T17:27:26.187Z,11.03
2018-12-14T17:29:59.948Z,11.37
2018-12-14T17:32:34.004Z,11.40
2018-12-14T17:35:07.913Z,12.37
2018-12-14T17:37:42.021Z,11.77
2018-12-14T17:40:15.791Z,11.33
2018-12-14T17:42:49.837Z,11.73
2018-12-14T17:45:23.743Z,11.67
2018-12-14T17:47:57.558Z,10.60
2018-12-14T17:50:31.558Z,11.57
2018-12-14T17:53:05.465Z,10.87
2018-12-14T17:55:39.278Z,11.83
2018-12-14T17:58:13.408Z,10.50
2018-12-14T18:00:48.660Z,10.93
2018-12-14T18:03:22.732Z,10.23
2018-12-14T18:05:56.741Z,10.30
2018-12-14T18:08:31.673Z,10.70
2018-12-14T18:11:05.573Z,9.93
2018-12-14T18:13:39.589Z,10.00
2018-12-14T18:16:13.556Z,10.60
2018-12-14T18:18:47.816Z,10.60
2018-12-14T18:21:21.729Z,10.97
2018-12-14T18:23:55.732Z,9.93
2018-12-14T18:26:29.558Z,10.60
2018-12-14T18:29:03.647Z,10.60
2018-12-14T18:31:37.510Z,10.53
2018-12-14T18:34:11.570Z,11.50
2018-12-14T18:36:45.880Z,10.90
2018-12-14T18:39:19.889Z,10.50
2018-12-14T18:41:53.717Z,10.97
2018-12-14T18:44:27.795Z,11.30
2018-12-14T18:47:01.823Z,10.63
2018-12-14T18:49:35.879Z,10.37
2018-12-14T18:52:10.040Z,10.57
2018-12-14T18:54:44.050Z,10.97
2018-12-14T18:57:17.841Z,10.87
2018-12-14T18:59:51.969Z,11.10
2018-12-14T19:02:25.872Z,11.87
2018-12-14T19:04:59.780Z,10.90
2018-12-14T19:07:33.893Z,11.10
2018-12-14T19:10:07.802Z,11.13
2018-12-14T19:12:41.860Z,11.60
2018-12-14T19:15:16.101Z,11.27
2018-12-14T19:17:49.994Z,11.50
2018-12-14T19:20:24.011Z,11.77
2018-12-14T19:22:58.052Z,12.53
2018-12-14T19:25:32.066Z,11.77
2018-12-14T19:28:05.968Z,12.03
2018-12-14T19:30:40.081Z,13.20
2018-12-14T19:33:13.879Z,11.40
2018-12-14T19:35:47.800Z,12.13
2018-12-14T19:38:21.700Z,11.60
2018-12-14T19:40:55.710Z,12.40
2018-12-14T19:43:29.416Z,11.97
2018-12-14T19:46:06.269Z,12.17
2018-12-14T19:48:39.277Z,12.40
2018-12-14T19:51:13.386Z,12.00
2018-12-14T19:53:47.396Z,12.60
2018-12-14T19:56:21.917Z,12.03
2018-12-14T19:58:55.728Z,12.40
2018-12-14T20:01:29.837Z,12.20
2018-12-14T20:04:03.945Z,12.67
2018-12-14T20:06:37.821Z,13.03
2018-12-14T20:09:12.376Z,12.70
2018-12-14T20:11:46.179Z,12.87
2018-12-14T20:14:20.087Z,11.70
2018-12-14T20:16:54.090Z,12.30
2018-12-14T20:19:28.110Z,12.03
2018-12-14T20:22:02.118Z,12.60
2018-12-14T20:24:36.120Z,12.43
2018-12-14T20:27:10.237Z,12.73
2018-12-14T20:29:44.145Z,12.90
2018-12-14T20:32:18.262Z,12.93
2018-12-14T20:34:52.367Z,12.37
2018-12-14T20:37:26.376Z,13.40
2018-12-14T20:40:00.065Z,12.27
2018-12-14T20:42:34.091Z,13.20
2018-12-14T20:45:08.201Z,12.03
2018-12-14T20:47:42.312Z,12.23
2018-12-14T20:50:16.220Z,13.43
2018-12-14T20:52:50.132Z,13.30
2018-12-14T20:55:23.940Z,12.93
2018-12-14T20:57:58.043Z,13.87
2018-12-14T21:00:32.055Z,13.67
2018-12-14T21:03:05.861Z,13.30
2018-12-14T21:05:39.767Z,13.97
2018-12-14T21:08:13.987Z,14.07
2018-12-14T21:10:48.091Z,13.90
2018-12-14T21:13:21.998Z,13.73
2018-12-14T21:15:56.113Z,14.53
2018-12-14T21:18:30.021Z,14.10
2018-12-14T21:21:04.130Z,14.57
2018-12-14T21:23:38.038Z,14.23
2018-12-14T21:26:11.768Z,14.80
2018-12-14T21:28:45.697Z,15.10
2018-12-14T21:31:19.861Z,15.60
2018-12-14T21:33:53.768Z,14.80
2018-12-14T21:36:27.677Z,14.40
2018-12-14T21:39:01.441Z,14.73
2018-12-14T21:41:37.008Z,16.20
2018-12-14T21:44:10.834Z,13.50
2018-12-14T21:46:44.917Z,14.17
2018-12-14T21:49:19.054Z,15.60
2018-12-14T21:51:52.865Z,16.30
2018-12-14T21:54:26.824Z,15.40
2018-12-14T21:57:00.879Z,16.37
2018-12-14T21:59:34.990Z,16.43
2018-12-14T22:02:08.796Z,16.07
2018-12-14T22:04:42.565Z,16.77
2018-12-14T22:07:16.711Z,16.87
2018-12-14T22:09:50.698Z,17.30
2018-12-14T22:12:24.731Z,17.50
2018-12-14T22:14:58.850Z,16.50
2018-12-14T22:17:33.262Z,17.23
2018-12-14T22:20:07.324Z,17.47
2018-12-14T22:22:41.179Z,16.53
2018-12-14T22:25:15.085Z,17.40
2018-12-14T22:27:48.970Z,17.10
2018-12-14T22:30:23.002Z,17.20
2018-12-14T22:32:56.807Z,17.00
2018-12-14T22:35:31.021Z,16.67
2018-12-14T22:38:05.031Z,16.57
2018-12-14T22:40:39.246Z,17.07
2018-12-14T22:43:13.153Z,17.87
2018-12-14T22:45:47.884Z,18.47
2018-12-14T22:48:21.888Z,16.67
2018-12-14T22:50:55.805Z,16.80
2018-12-14T22:53:29.703Z,16.20
2018-12-14T22:56:03.509Z,14.20
2018-12-14T22:58:37.418Z,13.77
2018-12-14T23:01:11.731Z,13.67
2018-12-14T23:03:45.352Z,14.73
2018-12-14T23:06:19.037Z,15.30
2018-12-14T23:08:52.895Z,15.77
2018-12-14T23:11:26.952Z,16.23
2018-12-14T23:14:00.617Z,14.73
2018-12-14T23:16:34.664Z,13.33
2018-12-14T23:19:08.574Z,13.57
2018-12-14T23:21:42.478Z,13.03
2018-12-14T23:24:16.589Z,13.40
2018-12-14T23:26:50.704Z,13.17
2018-12-14T23:29:24.610Z,13.77
2018-12-14T23:31:58.515Z,13.70
2018-12-14T23:34:32.423Z,13.33
2018-12-14T23:37:06.432Z,15.43
2018-12-14T23:39:40.116Z,15.10
2018-12-14T23:42:14.247Z,12.97
2018-12-14T23:44:48.157Z,12.83
2018-12-14T23:47:22.265Z,12.83
2018-12-14T23:49:56.276Z,13.13
2018-12-14T23:52:30.309Z,12.37
2018-12-14T23:55:04.396Z,12.13
2018-12-14T23:57:38.200Z,13.20
